Terminal Aerodrome Forecast
Issued by NWS Huntsville, AL

Home | Current Version | Previous Version | Text Only | Print | Product List | Glossary On
Versions: 1 2 3 4 5 6 7 8 9 10 11 12 13 14 15 16 17 18 19 20 21 22 23 24
000
FTUS44 KHUN 090543
TAFHSV
TAF
KHSV 090543Z 0906/1006 30012KT P6SM BKN035 OVC070
     FM091000 30008KT P6SM -SHSN BKN025 OVC035
     FM091500 30012G20KT P6SM -SHSN BKN025 OVC035
     FM100100 32008KT P6SM BKN025 OVC035=

USA.gov is the U.S. government's official web portal to all federal, state and local government web resources and services.